Time;durP1;ratioP1;P1;durP2;ratioP2;P2;SDS_P1;SDS_P2;PMS_P1;PMS_P2;Temp;Humidity;BMP_temperature;BMP_pressure;BME280_temperature;BME280_humidity;BME280_pressure;Samples;Min_cycle;Max_cycle;Signal;HPM_P1;HPM_P2
2022/10/21 00:01:29;;;;;;;;;;;;;4.30;98430.60;;;;109002;1269;41626;-61
2022/10/21 00:04:00;;;;;;;;;;;;;4.30;98424.20;;;;108933;1267;41411;-61
2022/10/21 00:06:31;;;;;;;;;;;;;4.30;98430.20;;;;108940;1269;42131;-61
2022/10/21 00:09:01;;;;;;;;;;;;;4.30;98425.40;;;;108906;1270;41556;-62
2022/10/21 00:11:31;;;;;;;;;;;;;4.30;98429.80;;;;108904;1269;41159;-61
2022/10/21 00:14:01;;;;;;;;;;;;;4.30;98423.80;;;;108956;1269;41160;-61
2022/10/21 00:16:31;;;;;;;;;;;;;4.20;98418.20;;;;108783;1271;41314;-62
2022/10/21 00:19:02;;;;;;;;;;;;;4.20;98417.40;;;;108989;1269;41485;-60
2022/10/21 00:21:32;;;;;;;;;;;;;4.10;98410.80;;;;108955;1269;41605;-61
2022/10/21 00:24:02;;;;;;;;;;;;;4.10;98411.40;;;;108974;1268;41240;-61
2022/10/21 00:26:32;;;;;;;;;;;;;4.06;98409.40;;;;108969;1268;41151;-61
2022/10/21 00:29:05;;;;;;;;;;;;;4.02;98409.00;;;;108951;1268;41163;-62
2022/10/21 00:31:36;;;;;;;;;;;;;4.00;98403.60;;;;108946;1268;41254;-61
2022/10/21 00:34:05;;;;;;;;;;;;;4.00;98401.20;;;;108909;1257;41150;-61
2022/10/21 00:36:36;;;;;;;;;;;;;3.96;98404.00;;;;108895;1271;41131;-61
2022/10/21 00:39:06;;;;;;;;;;;;;3.90;98394.60;;;;108898;1271;42551;-61
2022/10/21 00:41:36;;;;;;;;;;;;;3.90;98398.00;;;;108901;1269;41632;-60
2022/10/21 00:44:08;;;;;;;;;;;;;3.90;98394.40;;;;108981;1269;41652;-61
2022/10/21 00:46:38;;;;;;;;;;;;;3.90;98392.40;;;;108970;1269;41208;-61
2022/10/21 00:49:13;;;;;;;;;;;;;3.90;98395.40;;;;108995;1268;41681;-61
2022/10/21 00:51:43;;;;;;;;;;;;;3.90;98392.40;;;;108953;1268;41153;-61
2022/10/21 00:54:14;;;;;;;;;;;;;3.86;98391.40;;;;108980;1269;41643;-61
2022/10/21 00:56:44;;;;;;;;;;;;;3.80;98388.80;;;;108999;1268;42142;-61
2022/10/21 00:59:14;;;;;;;;;;;;;3.80;98393.20;;;;109023;1269;41355;-61
2022/10/21 01:01:43;;;;;;;;;;;;;3.70;98397.80;;;;109002;1268;41169;-60
2022/10/21 01:04:13;;;;;;;;;;;;;3.70;98397.20;;;;108966;1269;41673;-61
2022/10/21 01:06:42;;;;;;;;;;;;;3.60;98399.00;;;;108936;1271;41155;-61
2022/10/21 01:09:12;;;;;;;;;;;;;3.52;98394.40;;;;108998;1269;41138;-61
2022/10/21 01:11:43;;;;;;;;;;;;;3.50;98391.20;;;;108895;1271;41986;-61
2022/10/21 01:14:19;;;;;;;;;;;;;3.50;98393.40;;;;108958;1269;41237;-61
2022/10/21 01:16:58;;;;;;;;;;;;;3.40;98395.80;;;;108920;1260;41146;-61
2022/10/21 01:19:27;;;;;;;;;;;;;3.40;98394.80;;;;108934;1269;41669;-61
2022/10/21 01:22:03;;;;;;;;;;;;;3.40;98388.40;;;;108923;1270;41244;-61
2022/10/21 01:24:41;;;;;;;;;;;;;3.40;98391.40;;;;108912;1269;41155;-61
2022/10/21 01:27:14;;;;;;;;;;;;;3.30;98386.40;;;;108867;1269;41133;-61
2022/10/21 01:29:55;;;;;;;;;;;;;3.30;98383.40;;;;108925;1264;41617;-61
2022/10/21 01:32:45;;;;;;;;;;;;;3.30;98381.20;;;;108935;1269;41150;-60
2022/10/21 01:35:19;;;;;;;;;;;;;3.30;98381.60;;;;108875;1260;42411;-61
2022/10/21 01:38:07;;;;;;;;;;;;;3.30;98381.40;;;;108744;1270;41154;-62
2022/10/21 01:40:41;;;;;;;;;;;;;3.20;98380.20;;;;109005;1269;41192;-62
2022/10/21 01:43:15;;;;;;;;;;;;;3.20;98379.60;;;;108966;1260;41246;-62
2022/10/21 01:45:46;;;;;;;;;;;;;3.20;98380.40;;;;108967;1269;41164;-61
2022/10/21 01:48:25;;;;;;;;;;;;;3.18;98383.60;;;;108583;1271;41347;-61
2022/10/21 01:51:00;;;;;;;;;;;;;3.10;98384.20;;;;108856;1269;41676;-60
2022/10/21 01:53:31;;;;;;;;;;;;;3.10;98384.60;;;;108868;1269;41155;-61
2022/10/21 01:56:02;;;;;;;;;;;;;3.06;98384.60;;;;108897;1269;41165;-61
2022/10/21 01:58:32;;;;;;;;;;;;;3.00;98381.80;;;;108933;1269;41337;-61
2022/10/21 02:01:02;;;;;;;;;;;;;2.90;98381.00;;;;108911;1270;41153;-61
2022/10/21 02:03:34;;;;;;;;;;;;;2.90;98377.80;;;;108865;1270;41318;-61
2022/10/21 02:06:03;;;;;;;;;;;;;2.90;98380.00;;;;108977;1270;41178;-62
2022/10/21 02:08:32;;;;;;;;;;;;;2.90;98379.00;;;;108864;1269;41634;-61
2022/10/21 02:11:04;;;;;;;;;;;;;2.90;98379.40;;;;109014;1269;42109;-61
2022/10/21 02:13:52;;;;;;;;;;;;;2.90;98377.40;;;;109001;1269;41278;-61
2022/10/21 02:16:24;;;;;;;;;;;;;2.90;98385.00;;;;109034;1269;41165;-61
2022/10/21 02:18:55;;;;;;;;;;;;;2.90;98381.40;;;;109044;1269;42446;-61
2022/10/21 02:21:25;;;;;;;;;;;;;2.90;98383.00;;;;109079;1269;41367;-61
2022/10/21 02:23:54;;;;;;;;;;;;;2.86;98381.40;;;;109051;1269;41243;-62
2022/10/21 02:26:26;;;;;;;;;;;;;2.88;98380.00;;;;108999;1261;41401;-62
2022/10/21 02:28:57;;;;;;;;;;;;;2.80;98381.40;;;;109036;1269;41145;-62
2022/10/21 02:31:31;;;;;;;;;;;;;2.82;98382.80;;;;108998;1268;41446;-61
2022/10/21 02:34:00;;;;;;;;;;;;;2.80;98382.00;;;;109043;1268;41147;-61
2022/10/21 02:36:35;;;;;;;;;;;;;2.80;98380.40;;;;109099;1268;42326;-61
2022/10/21 02:39:11;;;;;;;;;;;;;2.72;98384.80;;;;109059;1268;41895;-61
2022/10/21 02:41:41;;;;;;;;;;;;;2.70;98380.40;;;;108990;1268;41942;-61
2022/10/21 02:44:11;;;;;;;;;;;;;2.70;98383.80;;;;109067;1267;41142;-61
2022/10/21 02:46:41;;;;;;;;;;;;;2.60;98382.60;;;;109061;1268;41968;-62
2022/10/21 02:49:12;;;;;;;;;;;;;2.60;98384.60;;;;109050;1268;41143;-61
2022/10/21 02:51:42;;;;;;;;;;;;;2.60;98380.80;;;;109015;1266;42192;-60
2022/10/21 02:54:12;;;;;;;;;;;;;2.60;98383.40;;;;109031;1268;41337;-61
2022/10/21 02:56:41;;;;;;;;;;;;;2.58;98385.40;;;;109050;1268;41159;-60
2022/10/21 02:59:10;;;;;;;;;;;;;2.56;98381.00;;;;109044;1268;42275;-61
2022/10/21 03:01:40;;;;;;;;;;;;;2.50;98380.00;;;;109042;1268;41187;-60
2022/10/21 03:04:09;;;;;;;;;;;;;2.54;98383.60;;;;109032;1268;41127;-60
2022/10/21 03:06:40;;;;;;;;;;;;;2.50;98387.40;;;;108991;1268;41702;-61
2022/10/21 03:09:09;;;;;;;;;;;;;2.50;98387.80;;;;108944;1264;41160;-60
2022/10/21 03:11:38;;;;;;;;;;;;;2.50;98377.20;;;;108975;1268;42493;-61
2022/10/21 03:14:08;;;;;;;;;;;;;2.50;98379.40;;;;109025;1268;41148;-61
2022/10/21 03:16:37;;;;;;;;;;;;;2.50;98380.20;;;;109032;1268;41146;-61
2022/10/21 03:19:06;;;;;;;;;;;;;2.48;98380.60;;;;109021;1268;41904;-60
2022/10/21 03:21:36;;;;;;;;;;;;;2.40;98382.20;;;;108941;1269;41687;-61
2022/10/21 03:24:05;;;;;;;;;;;;;2.40;98380.60;;;;108918;1269;41167;-61
2022/10/21 03:26:38;;;;;;;;;;;;;2.40;98380.60;;;;108960;1269;41182;-60
2022/10/21 03:29:09;;;;;;;;;;;;;2.40;98373.00;;;;108927;1269;41312;-61
2022/10/21 03:31:38;;;;;;;;;;;;;2.40;98373.60;;;;108980;1267;41226;-61
2022/10/21 03:34:08;;;;;;;;;;;;;2.30;98376.00;;;;108948;1269;41166;-61
2022/10/21 03:36:37;;;;;;;;;;;;;2.30;98377.20;;;;108915;1269;42616;-60
2022/10/21 03:39:07;;;;;;;;;;;;;2.30;98370.20;;;;108970;1269;41346;-61
2022/10/21 03:41:35;;;;;;;;;;;;;2.30;98375.60;;;;108826;1270;41173;-61
2022/10/21 03:44:04;;;;;;;;;;;;;2.26;98373.80;;;;108958;1269;41397;-60
2022/10/21 03:46:33;;;;;;;;;;;;;2.20;98374.20;;;;108992;1269;41482;-61
2022/10/21 03:49:02;;;;;;;;;;;;;2.20;98376.40;;;;108912;1269;41204;-60
2022/10/21 03:51:34;;;;;;;;;;;;;2.12;98375.00;;;;108987;1269;41611;-61
2022/10/21 03:54:03;;;;;;;;;;;;;2.10;98372.00;;;;108848;1268;41237;-60
2022/10/21 03:56:32;;;;;;;;;;;;;2.10;98379.00;;;;109036;1268;41146;-60
2022/10/21 03:59:01;;;;;;;;;;;;;2.10;98376.40;;;;109024;1268;41137;-61
2022/10/21 04:01:30;;;;;;;;;;;;;2.10;98371.60;;;;109013;1260;41190;-61
2022/10/21 04:03:59;;;;;;;;;;;;;2.10;98368.80;;;;108999;1266;41373;-61
2022/10/21 04:06:28;;;;;;;;;;;;;2.10;98363.40;;;;108973;1264;41160;-60
2022/10/21 04:08:56;;;;;;;;;;;;;2.10;98369.60;;;;109024;1268;41689;-60
2022/10/21 04:11:25;;;;;;;;;;;;;2.06;98368.40;;;;109025;1268;41230;-60
2022/10/21 04:13:55;;;;;;;;;;;;;2.08;98363.40;;;;109037;1268;41924;-61
2022/10/21 04:16:25;;;;;;;;;;;;;2.00;98362.40;;;;109061;1268;42775;-61
2022/10/21 04:18:54;;;;;;;;;;;;;2.00;98360.80;;;;109041;1268;41138;-61
2022/10/21 04:21:24;;;;;;;;;;;;;1.90;98355.20;;;;109059;1267;41167;-62
2022/10/21 04:23:53;;;;;;;;;;;;;1.90;98356.20;;;;109001;1268;41157;-61
2022/10/21 04:26:22;;;;;;;;;;;;;1.86;98352.40;;;;109077;1265;42154;-60
2022/10/21 04:28:51;;;;;;;;;;;;;1.80;98348.20;;;;109070;1268;41185;-60
2022/10/21 04:31:20;;;;;;;;;;;;;1.80;98348.60;;;;109055;1267;41710;-60
2022/10/21 04:33:50;;;;;;;;;;;;;1.80;98343.60;;;;108935;1268;41147;-60
2022/10/21 04:36:19;;;;;;;;;;;;;1.80;98342.40;;;;108911;1267;41210;-60
2022/10/21 04:38:49;;;;;;;;;;;;;1.80;98343.40;;;;108959;1268;41252;-61
2022/10/21 04:41:17;;;;;;;;;;;;;1.80;98346.20;;;;108943;1269;41215;-60
2022/10/21 04:43:46;;;;;;;;;;;;;1.80;98345.00;;;;109076;1268;41887;-61
2022/10/21 04:46:16;;;;;;;;;;;;;1.80;98345.20;;;;109137;1260;41313;-61
2022/10/21 04:48:44;;;;;;;;;;;;;1.80;98346.00;;;;109036;1266;41613;-61
2022/10/21 04:51:13;;;;;;;;;;;;;1.80;98351.00;;;;109032;1268;41197;-61
2022/10/21 04:53:43;;;;;;;;;;;;;1.80;98352.60;;;;109058;1267;41139;-61
2022/10/21 04:56:12;;;;;;;;;;;;;1.80;98349.60;;;;109023;1260;42345;-61
2022/10/21 04:58:40;;;;;;;;;;;;;1.80;98347.80;;;;109017;1255;42120;-60
2022/10/21 05:01:09;;;;;;;;;;;;;1.80;98348.60;;;;109047;1268;42662;-60
2022/10/21 05:03:38;;;;;;;;;;;;;1.80;98347.60;;;;109041;1268;42034;-61
2022/10/21 05:06:06;;;;;;;;;;;;;1.80;98346.60;;;;109029;1268;41224;-61
2022/10/21 05:08:35;;;;;;;;;;;;;1.80;98351.00;;;;108995;1268;41166;-61
2022/10/21 05:11:04;;;;;;;;;;;;;1.80;98356.00;;;;108985;1268;42187;-61
2022/10/21 05:13:33;;;;;;;;;;;;;1.80;98353.40;;;;109043;1268;41184;-61
2022/10/21 05:16:02;;;;;;;;;;;;;1.80;98355.80;;;;109086;1268;41143;-61
2022/10/21 05:18:32;;;;;;;;;;;;;1.80;98353.00;;;;108991;1256;41177;-61
2022/10/21 05:21:02;;;;;;;;;;;;;1.90;98356.00;;;;108923;1269;41233;-60
2022/10/21 05:23:30;;;;;;;;;;;;;1.90;98350.80;;;;108956;1269;41137;-60
2022/10/21 05:25:59;;;;;;;;;;;;;2.00;98352.60;;;;108991;1269;41930;-61
2022/10/21 05:28:27;;;;;;;;;;;;;2.10;98352.40;;;;109010;1269;41134;-61
2022/10/21 05:30:56;;;;;;;;;;;;;2.12;98347.20;;;;109048;1269;41612;-59
2022/10/21 05:33:25;;;;;;;;;;;;;2.20;98348.00;;;;109021;1268;41553;-59
2022/10/21 05:35:55;;;;;;;;;;;;;2.30;98351.60;;;;108982;1268;41144;-60
2022/10/21 05:38:23;;;;;;;;;;;;;2.40;98350.60;;;;109046;1260;41156;-61
2022/10/21 05:40:52;;;;;;;;;;;;;2.50;98355.00;;;;109008;1268;41925;-59
2022/10/21 05:43:20;;;;;;;;;;;;;2.60;98356.00;;;;109005;1267;41615;-60
2022/10/21 05:45:49;;;;;;;;;;;;;2.70;98357.00;;;;109141;1267;41369;-59
2022/10/21 05:48:18;;;;;;;;;;;;;2.82;98355.80;;;;109086;1267;41139;-60
2022/10/21 05:50:46;;;;;;;;;;;;;3.00;98357.40;;;;108967;1268;41537;-60
2022/10/21 05:53:15;;;;;;;;;;;;;3.04;98358.60;;;;108998;1268;41284;-60
2022/10/21 05:55:43;;;;;;;;;;;;;3.20;98356.60;;;;108979;1268;41241;-60
2022/10/21 05:58:12;;;;;;;;;;;;;3.30;98353.20;;;;109115;1268;41169;-59
2022/10/21 06:00:40;;;;;;;;;;;;;3.40;98357.40;;;;108988;1260;41146;-60
2022/10/21 06:03:08;;;;;;;;;;;;;3.50;98357.40;;;;109008;1268;41704;-59
2022/10/21 06:05:37;;;;;;;;;;;;;3.60;98361.80;;;;109054;1268;41649;-59
2022/10/21 06:08:05;;;;;;;;;;;;;3.70;98357.00;;;;108988;1257;42154;-59
2022/10/21 06:10:35;;;;;;;;;;;;;3.70;98354.80;;;;109048;1268;41244;-59
2022/10/21 06:13:03;;;;;;;;;;;;;3.80;98353.80;;;;108940;1259;41266;-60
2022/10/21 06:15:33;;;;;;;;;;;;;3.92;98356.20;;;;109003;1268;42537;-60
2022/10/21 06:18:11;;;;;;;;;;;;;4.10;98359.20;;;;109011;1268;41944;-59
2022/10/21 06:20:39;;;;;;;;;;;;;4.22;98365.40;;;;109061;1268;41646;-61
2022/10/21 06:23:11;;;;;;;;;;;;;4.40;98365.00;;;;109013;1268;41852;-60
2022/10/21 06:25:39;;;;;;;;;;;;;4.50;98369.20;;;;109023;1266;41131;-59
2022/10/21 06:28:08;;;;;;;;;;;;;4.70;98377.80;;;;109039;1268;41143;-60
2022/10/21 06:30:37;;;;;;;;;;;;;4.80;98379.20;;;;109062;1268;41769;-60
2022/10/21 06:33:05;;;;;;;;;;;;;5.00;98379.00;;;;108978;1268;41782;-60
2022/10/21 06:35:33;;;;;;;;;;;;;5.20;98375.00;;;;109004;1268;41202;-58
2022/10/21 06:38:02;;;;;;;;;;;;;5.36;98367.00;;;;109021;1268;41617;-59
2022/10/21 06:40:30;;;;;;;;;;;;;5.56;98352.00;;;;109069;1268;41143;-59
2022/10/21 06:43:01;;;;;;;;;;;;;5.68;98352.20;;;;109029;1265;42288;-58
2022/10/21 06:45:30;;;;;;;;;;;;;5.80;98351.60;;;;109051;1268;41241;-59
2022/10/21 06:47:59;;;;;;;;;;;;;6.00;98352.00;;;;108985;1268;41133;-59
2022/10/21 06:50:27;;;;;;;;;;;;;6.20;98350.80;;;;108988;1268;41303;-59
2022/10/21 06:52:56;;;;;;;;;;;;;6.42;98350.00;;;;109021;1268;41147;-59
2022/10/21 06:55:24;;;;;;;;;;;;;6.60;98354.80;;;;109063;1268;41149;-59
2022/10/21 06:57:53;;;;;;;;;;;;;6.84;98353.80;;;;109057;1268;41378;-60
2022/10/21 07:00:21;;;;;;;;;;;;;7.00;98351.60;;;;109027;1266;41243;-60
2022/10/21 07:02:50;;;;;;;;;;;;;7.26;98359.40;;;;109043;1268;41204;-59
2022/10/21 07:05:19;;;;;;;;;;;;;7.44;98363.60;;;;109043;1268;41143;-60
2022/10/21 07:07:48;;;;;;;;;;;;;7.70;98360.00;;;;109013;1268;41149;-60
2022/10/21 07:10:17;;;;;;;;;;;;;7.90;98356.20;;;;108977;1268;41433;-60
2022/10/21 07:12:46;;;;;;;;;;;;;8.14;98355.20;;;;109016;1266;41136;-59
2022/10/21 07:15:15;;;;;;;;;;;;;8.30;98354.80;;;;109023;1268;41160;-59
2022/10/21 07:17:43;;;;;;;;;;;;;8.50;98346.20;;;;108951;1266;42269;-60
2022/10/21 07:20:12;;;;;;;;;;;;;8.60;98336.20;;;;109045;1268;41142;-60
2022/10/21 07:22:40;;;;;;;;;;;;;8.80;98329.40;;;;109016;1268;41713;-60
2022/10/21 07:25:09;;;;;;;;;;;;;8.90;98325.80;;;;109091;1266;41440;-58
2022/10/21 07:27:38;;;;;;;;;;;;;9.00;98326.00;;;;108713;1268;387248;-59
2022/10/21 07:30:08;;;;;;;;;;;;;9.20;98324.00;;;;108994;1269;41396;-60
2022/10/21 07:32:39;;;;;;;;;;;;;9.40;98326.40;;;;108861;1269;41603;-59
2022/10/21 07:35:08;;;;;;;;;;;;;9.68;98322.00;;;;108882;1266;41150;-59
2022/10/21 07:37:37;;;;;;;;;;;;;10.00;98326.40;;;;108819;1266;41375;-59
2022/10/21 07:40:08;;;;;;;;;;;;;10.10;98325.80;;;;108830;1269;41231;-59
2022/10/21 07:42:36;;;;;;;;;;;;;10.30;98321.60;;;;108808;1269;41695;-59
2022/10/21 07:45:04;;;;;;;;;;;;;10.60;98323.00;;;;108792;1269;41150;-59
2022/10/21 07:47:33;;;;;;;;;;;;;10.84;98319.40;;;;108826;1269;42530;-58
2022/10/21 07:50:01;;;;;;;;;;;;;11.02;98314.00;;;;108823;1268;41914;-58
2022/10/21 07:52:30;;;;;;;;;;;;;11.18;98314.00;;;;108873;1270;41131;-59
2022/10/21 07:55:01;;;;;;;;;;;;;11.34;98311.80;;;;108830;1269;41213;-59
2022/10/21 07:57:29;;;;;;;;;;;;;11.54;98317.00;;;;108803;1269;41363;-58
2022/10/21 07:59:57;;;;;;;;;;;;;11.58;98311.20;;;;108875;1268;41162;-59
2022/10/21 08:02:26;;;;;;;;;;;;;11.68;98304.00;;;;108979;1268;41235;-59
2022/10/21 08:04:55;;;;;;;;;;;;;11.80;98296.60;;;;108989;1259;41695;-59
2022/10/21 08:07:24;;;;;;;;;;;;;12.02;98288.00;;;;108909;1268;41388;-59
2022/10/21 08:09:52;;;;;;;;;;;;;12.28;98291.20;;;;109011;1268;41143;-59
2022/10/21 08:12:22;;;;;;;;;;;;;12.30;98286.00;;;;108952;1268;41140;-59
2022/10/21 08:14:50;;;;;;;;;;;;;12.50;98288.40;;;;108990;1267;41596;-59
2022/10/21 08:17:19;;;;;;;;;;;;;12.90;98285.60;;;;108989;1266;42093;-60
2022/10/21 08:19:47;;;;;;;;;;;;;13.48;98285.40;;;;109014;1267;41246;-59
2022/10/21 08:22:16;;;;;;;;;;;;;14.00;98274.40;;;;108965;1268;41174;-60
2022/10/21 08:24:45;;;;;;;;;;;;;14.48;98280.80;;;;108803;1270;41163;-59
2022/10/21 08:27:14;;;;;;;;;;;;;14.88;98279.80;;;;109048;1266;41645;-59
2022/10/21 08:29:42;;;;;;;;;;;;;15.58;98286.20;;;;108882;1260;41174;-59
2022/10/21 08:32:11;;;;;;;;;;;;;15.88;98277.80;;;;108881;1268;41726;-59
2022/10/21 08:34:39;;;;;;;;;;;;;16.20;98274.00;;;;108914;1268;41605;-59
2022/10/21 08:37:08;;;;;;;;;;;;;16.68;98266.00;;;;109086;1265;41159;-58
2022/10/21 08:39:37;;;;;;;;;;;;;17.16;98257.40;;;;109005;1267;41202;-59
2022/10/21 08:42:05;;;;;;;;;;;;;17.76;98259.80;;;;108972;1268;42034;-60
2022/10/21 08:44:54;;;;;;;;;;;;;18.12;98247.00;;;;108990;1268;41141;-60
2022/10/21 08:47:44;;;;;;;;;;;;;18.86;98246.80;;;;109005;1267;41604;-60
2022/10/21 08:50:13;;;;;;;;;;;;;19.50;98242.80;;;;108828;1269;42066;-60
2022/10/21 08:52:43;;;;;;;;;;;;;19.78;98233.80;;;;108817;1269;42187;-60
2022/10/21 08:55:15;;;;;;;;;;;;;20.22;98243.20;;;;108813;1269;41152;-60
2022/10/21 08:57:43;;;;;;;;;;;;;20.40;98234.60;;;;108776;1268;42386;-60
2022/10/21 09:00:14;;;;;;;;;;;;;20.96;98233.00;;;;108798;1269;41188;-60
2022/10/21 09:03:03;;;;;;;;;;;;;21.52;98225.00;;;;108938;1268;42059;-60
2022/10/21 09:05:35;;;;;;;;;;;;;21.98;98222.20;;;;109008;1268;41161;-60
2022/10/21 09:08:03;;;;;;;;;;;;;22.42;98212.60;;;;108949;1268;41341;-60
2022/10/21 09:10:50;;;;;;;;;;;;;22.70;98213.60;;;;108992;1266;42195;-60
2022/10/21 09:13:37;;;;;;;;;;;;;22.90;98211.60;;;;108954;1268;41703;-60
2022/10/21 09:16:18;;;;;;;;;;;;;23.14;98212.20;;;;109003;1267;41143;-60
2022/10/21 09:19:06;;;;;;;;;;;;;23.24;98207.60;;;;109046;1263;41761;-60
2022/10/21 09:21:44;;;;;;;;;;;;;23.70;98208.40;;;;108658;1268;41169;-59
2022/10/21 09:24:16;;;;;;;;;;;;;24.36;98204.80;;;;109044;1267;41229;-60
2022/10/21 09:26:46;;;;;;;;;;;;;24.60;98200.00;;;;109005;1269;41246;-60
2022/10/21 09:29:26;;;;;;;;;;;;;25.34;98197.00;;;;108972;1269;41234;-59
2022/10/21 09:31:55;;;;;;;;;;;;;25.94;98195.40;;;;109009;1269;41152;-61
2022/10/21 09:34:32;;;;;;;;;;;;;26.10;98190.60;;;;108786;1269;41136;-62
2022/10/21 09:37:01;;;;;;;;;;;;;26.20;98193.60;;;;108919;1269;41173;-60
2022/10/21 09:39:34;;;;;;;;;;;;;26.34;98191.00;;;;108918;1269;41627;-60
2022/10/21 09:42:02;;;;;;;;;;;;;26.66;98191.00;;;;108821;1269;41147;-60
2022/10/21 09:44:39;;;;;;;;;;;;;26.76;98186.20;;;;108782;1269;41321;-60
2022/10/21 09:47:18;;;;;;;;;;;;;27.04;98173.40;;;;108804;1266;41234;-60
2022/10/21 09:49:52;;;;;;;;;;;;;27.54;98173.40;;;;108810;1269;42193;-60
2022/10/21 09:52:34;;;;;;;;;;;;;27.78;98165.60;;;;109062;1256;41200;-60
2022/10/21 09:55:03;;;;;;;;;;;;;28.16;98164.60;;;;109048;1264;42400;-60
2022/10/21 09:57:31;;;;;;;;;;;;;28.22;98157.60;;;;108850;1268;41219;-60
2022/10/21 10:00:01;;;;;;;;;;;;;27.88;98156.20;;;;109014;1268;41176;-61
2022/10/21 10:02:38;;;;;;;;;;;;;28.50;98155.60;;;;109016;1268;41158;-60
2022/10/21 10:05:26;;;;;;;;;;;;;29.04;98150.00;;;;109050;1268;41590;-61
2022/10/21 10:07:54;;;;;;;;;;;;;29.32;98150.40;;;;109052;1268;41141;-61
2022/10/21 10:10:30;;;;;;;;;;;;;29.46;98144.20;;;;109036;1268;41142;-60
2022/10/21 10:12:59;;;;;;;;;;;;;29.70;98134.20;;;;108953;1269;42488;-59
2022/10/21 10:15:32;;;;;;;;;;;;;29.66;98134.00;;;;108907;1269;41331;-60
2022/10/21 10:18:01;;;;;;;;;;;;;29.98;98133.20;;;;109071;1266;41242;-60
2022/10/21 10:20:29;;;;;;;;;;;;;30.16;98134.20;;;;109003;1268;42246;-61
2022/10/21 10:22:57;;;;;;;;;;;;;30.72;98132.40;;;;109014;1268;42012;-60
2022/10/21 10:25:29;;;;;;;;;;;;;31.02;98127.20;;;;109035;1268;41150;-60
2022/10/21 10:28:00;;;;;;;;;;;;;30.54;98128.40;;;;109049;1268;41236;-60
2022/10/21 10:30:36;;;;;;;;;;;;;31.32;98123.00;;;;109024;1267;41193;-60
2022/10/21 10:33:09;;;;;;;;;;;;;31.88;98122.00;;;;109015;1266;41139;-60
2022/10/21 10:35:38;;;;;;;;;;;;;31.82;98113.00;;;;109044;1259;41420;-60
2022/10/21 10:38:09;;;;;;;;;;;;;32.40;98111.60;;;;109004;1267;41356;-60
2022/10/21 10:40:40;;;;;;;;;;;;;32.86;98112.00;;;;109029;1266;41619;-60
2022/10/21 10:43:13;;;;;;;;;;;;;32.52;98108.80;;;;109016;1268;41275;-61
2022/10/21 10:46:09;;;;;;;;;;;;;32.14;98108.00;;;;109015;1266;41935;-60
2022/10/21 10:48:39;;;;;;;;;;;;;32.38;98104.60;;;;109044;1267;41236;-60
2022/10/21 10:51:28;;;;;;;;;;;;;33.32;98097.60;;;;109012;1267;41943;-60
2022/10/21 10:54:05;;;;;;;;;;;;;33.84;98095.00;;;;108992;1268;41892;-60
2022/10/21 10:56:37;;;;;;;;;;;;;34.36;98094.60;;;;109038;1268;41142;-60
2022/10/21 10:59:24;;;;;;;;;;;;;34.72;98094.00;;;;109058;1268;41178;-60
2022/10/21 11:01:52;;;;;;;;;;;;;34.88;98087.40;;;;108963;1267;42165;-60
2022/10/21 11:04:41;;;;;;;;;;;;;34.90;98080.20;;;;108819;1263;41600;-60
2022/10/21 11:07:12;;;;;;;;;;;;;34.90;98079.00;;;;108990;1269;41161;-60
2022/10/21 11:09:40;;;;;;;;;;;;;34.90;98074.80;;;;108947;1269;41318;-60
2022/10/21 11:12:12;;;;;;;;;;;;;35.14;98063.60;;;;108782;1271;41284;-60
2022/10/21 11:14:40;;;;;;;;;;;;;35.52;98059.60;;;;108881;1270;41463;-60
2022/10/21 11:17:11;;;;;;;;;;;;;35.72;98050.20;;;;108952;1268;41144;-60
2022/10/21 11:19:44;;;;;;;;;;;;;34.84;98044.00;;;;109050;1266;41694;-60
2022/10/21 11:22:33;;;;;;;;;;;;;35.62;98041.40;;;;109009;1266;41498;-60
2022/10/21 11:25:08;;;;;;;;;;;;;36.06;98035.60;;;;108655;1268;41298;-61
2022/10/21 11:27:39;;;;;;;;;;;;;36.46;98034.40;;;;109031;1268;41977;-60
2022/10/21 11:30:08;;;;;;;;;;;;;35.78;98037.00;;;;109017;1267;41152;-60
2022/10/21 11:32:49;;;;;;;;;;;;;35.40;98033.40;;;;109001;1266;41320;-60
2022/10/21 11:35:31;;;;;;;;;;;;;36.10;98033.20;;;;108984;1268;41236;-59
2022/10/21 11:38:38;;;;;;;;;;;;;36.54;98035.60;;;;108857;1268;41237;-60
2022/10/21 11:41:06;;;;;;;;;;;;;37.26;98038.00;;;;108306;1274;41182;-60
2022/10/21 11:43:39;;;;;;;;;;;;;37.44;98036.40;;;;108418;1274;42998;-60
2022/10/21 11:46:14;;;;;;;;;;;;;37.26;98032.40;;;;108728;1268;41601;-60
2022/10/21 11:48:48;;;;;;;;;;;;;37.36;98033.60;;;;109101;1256;41142;-59
2022/10/21 11:51:35;;;;;;;;;;;;;37.30;98035.60;;;;108907;1266;41238;-60
2022/10/21 11:54:10;;;;;;;;;;;;;37.58;98032.00;;;;108941;1269;41144;-60
2022/10/21 11:56:44;;;;;;;;;;;;;37.68;98033.00;;;;108919;1269;41151;-60
2022/10/21 11:59:32;;;;;;;;;;;;;38.10;98026.40;;;;108920;1269;41321;-60
2022/10/21 12:02:16;;;;;;;;;;;;;38.50;98027.00;;;;108968;1269;41734;-60
2022/10/21 12:04:54;;;;;;;;;;;;;38.64;98023.80;;;;108994;1268;42525;-60
2022/10/21 12:07:26;;;;;;;;;;;;;38.90;98017.60;;;;108896;1269;41444;-60
2022/10/21 12:10:04;;;;;;;;;;;;;39.22;98018.40;;;;108838;1266;41167;-60
2022/10/21 12:12:33;;;;;;;;;;;;;39.72;98022.40;;;;108909;1265;41231;-60
2022/10/21 12:15:03;;;;;;;;;;;;;40.00;98020.60;;;;108871;1269;41139;-60
2022/10/21 12:17:32;;;;;;;;;;;;;39.70;98016.80;;;;108859;1269;41679;-60
2022/10/21 12:20:03;;;;;;;;;;;;;38.98;98012.00;;;;108781;1268;41298;-60
2022/10/21 12:22:32;;;;;;;;;;;;;38.70;98014.80;;;;108994;1266;42418;-60
2022/10/21 12:25:07;;;;;;;;;;;;;38.40;98010.60;;;;108914;1263;41145;-60
2022/10/21 12:27:41;;;;;;;;;;;;;38.68;98013.00;;;;108979;1269;41148;-60
2022/10/21 12:30:18;;;;;;;;;;;;;39.00;98005.20;;;;108943;1269;41638;-60
2022/10/21 12:32:55;;;;;;;;;;;;;39.40;98009.00;;;;108858;1270;41241;-60
2022/10/21 12:35:25;;;;;;;;;;;;;39.98;98006.60;;;;108987;1269;42219;-60
2022/10/21 12:37:53;;;;;;;;;;;;;40.30;98005.80;;;;109008;1269;41150;-59
2022/10/21 12:40:25;;;;;;;;;;;;;39.60;97998.80;;;;108983;1269;41232;-59
2022/10/21 12:43:05;;;;;;;;;;;;;39.50;97990.80;;;;109000;1269;41146;-60
2022/10/21 12:45:37;;;;;;;;;;;;;39.16;97991.20;;;;108832;1269;41142;-60
2022/10/21 12:48:24;;;;;;;;;;;;;39.20;97987.60;;;;108833;1269;41935;-60
2022/10/21 12:50:59;;;;;;;;;;;;;39.24;97987.40;;;;108906;1265;41287;-61
2022/10/21 12:53:27;;;;;;;;;;;;;37.60;97987.80;;;;108868;1269;41645;-60
2022/10/21 12:55:57;;;;;;;;;;;;;37.60;97985.40;;;;108963;1266;41149;-60
2022/10/21 12:58:45;;;;;;;;;;;;;37.60;97985.40;;;;108959;1269;41164;-60
2022/10/21 13:01:32;;;;;;;;;;;;;37.38;97986.60;;;;108851;1270;41167;-60
2022/10/21 13:04:00;;;;;;;;;;;;;37.42;97988.80;;;;108729;1269;41238;-60
2022/10/21 13:06:48;;;;;;;;;;;;;37.60;97987.20;;;;108578;1263;41147;-60
2022/10/21 13:09:34;;;;;;;;;;;;;37.42;97981.80;;;;108829;1269;41902;-60
2022/10/21 13:12:02;;;;;;;;;;;;;37.60;97983.20;;;;108968;1269;41663;-60
2022/10/21 13:14:47;;;;;;;;;;;;;37.72;97982.80;;;;108940;1269;41145;-60
2022/10/21 13:17:21;;;;;;;;;;;;;38.20;97973.40;;;;108946;1269;41570;-60
2022/10/21 13:20:07;;;;;;;;;;;;;38.48;97977.20;;;;108959;1269;41466;-60
2022/10/21 13:22:37;;;;;;;;;;;;;38.80;97980.00;;;;108682;1269;41253;-60
2022/10/21 13:25:09;;;;;;;;;;;;;38.90;97975.00;;;;109009;1266;41987;-60
2022/10/21 13:27:40;;;;;;;;;;;;;39.06;97970.00;;;;108881;1268;41242;-60
2022/10/21 13:30:08;;;;;;;;;;;;;39.08;97970.40;;;;108841;1269;41156;-60
2022/10/21 13:32:37;;;;;;;;;;;;;38.70;97971.00;;;;108886;1269;41162;-60
2022/10/21 13:35:18;;;;;;;;;;;;;38.30;97971.20;;;;108681;1262;41153;-60
2022/10/21 13:38:16;;;;;;;;;;;;;38.26;97971.00;;;;108789;1269;41216;-60
2022/10/21 13:40:49;;;;;;;;;;;;;37.70;97969.80;;;;108975;1265;41693;-60
2022/10/21 13:43:27;;;;;;;;;;;;;36.16;97976.80;;;;109059;1256;41400;-60
2022/10/21 13:45:58;;;;;;;;;;;;;35.08;97972.40;;;;109067;1265;41561;-59
2022/10/21 13:48:26;;;;;;;;;;;;;34.84;97979.60;;;;109001;1268;41323;-59
2022/10/21 13:50:55;;;;;;;;;;;;;34.38;97979.80;;;;109033;1268;41235;-60
2022/10/21 13:53:24;;;;;;;;;;;;;34.36;97971.40;;;;109006;1265;41148;-60
2022/10/21 13:56:03;;;;;;;;;;;;;34.40;97966.00;;;;108861;1268;42181;-60
2022/10/21 13:58:37;;;;;;;;;;;;;34.44;97958.80;;;;108828;1271;41605;-60
2022/10/21 14:01:07;;;;;;;;;;;;;34.50;97952.40;;;;108682;1269;41546;-60